sensor_id;sensor_type;location;lat;lon;timestamp;pressure;altitude;pressure_sealevel;temperature;humidity
31096;BME280;17749;51.962;8.560;2023-09-30T05:01:30;101027.47;;;10.58;100.00
31096;BME280;17749;51.962;8.560;2023-09-30T05:03:57;101026.63;;;10.56;100.00
31096;BME280;17749;51.962;8.560;2023-09-30T05:06:24;101026.63;;;10.56;100.00
31096;BME280;17749;51.962;8.560;2023-09-30T05:08:52;101015.09;;;10.57;100.00
31096;BME280;17749;51.962;8.560;2023-09-30T05:11:19;101024.91;;;10.55;100.00
31096;BME280;17749;51.962;8.560;2023-09-30T05:13:46;101017.84;;;10.53;100.00
31096;BME280;17749;51.962;8.560;2023-09-30T05:16:13;101027.47;;;10.59;100.00
31096;BME280;17749;51.962;8.560;2023-09-30T05:18:41;101045.28;;;10.56;100.00
31096;BME280;17749;51.962;8.560;2023-09-30T05:21:08;101046.03;;;10.61;100.00
31096;BME280;17749;51.962;8.560;2023-09-30T05:23:36;101038.00;;;10.64;100.00
31096;BME280;17749;51.962;8.560;2023-09-30T05:26:03;101052.22;;;10.63;100.00
31096;BME280;17749;51.962;8.560;2023-09-30T05:28:31;101056.66;;;10.64;100.00
31096;BME280;17749;51.962;8.560;2023-09-30T05:30:58;101051.25;;;10.67;100.00
31096;BME280;17749;51.962;8.560;2023-09-30T05:33:25;101039.63;;;10.69;100.00
31096;BME280;17749;51.962;8.560;2023-09-30T05:35:54;101047.44;;;10.77;100.00
31096;BME280;17749;51.962;8.560;2023-09-30T05:38:21;101044.00;;;10.72;100.00
31096;BME280;17749;51.962;8.560;2023-09-30T05:40:50;101038.69;;;10.72;100.00
31096;BME280;17749;51.962;8.560;2023-09-30T05:43:17;101038.69;;;10.72;100.00
31096;BME280;17749;51.962;8.560;2023-09-30T05:45:44;101040.59;;;10.67;100.00
31096;BME280;17749;51.962;8.560;2023-09-30T05:48:16;101045.75;;;10.73;100.00
31096;BME280;17749;51.962;8.560;2023-09-30T05:50:43;101044.72;;;10.79;100.00
31096;BME280;17749;51.962;8.560;2023-09-30T05:53:10;101046.41;;;10.81;100.00
31096;BME280;17749;51.962;8.560;2023-09-30T05:55:38;101056.84;;;10.90;100.00
31096;BME280;17749;51.962;8.560;2023-09-30T05:58:05;101065.75;;;10.89;100.00
31096;BME280;17749;51.962;8.560;2023-09-30T06:00:32;101072.75;;;10.93;100.00
31096;BME280;17749;51.962;8.560;2023-09-30T06:03:02;101078.97;;;10.92;100.00
31096;BME280;17749;51.962;8.560;2023-09-30T06:05:33;101086.03;;;10.95;100.00
31096;BME280;17749;51.962;8.560;2023-09-30T06:08:03;101082.25;;;11.04;100.00
31096;BME280;17749;51.962;8.560;2023-09-30T06:10:31;101086.63;;;11.06;100.00
31096;BME280;17749;51.962;8.560;2023-09-30T06:12:58;101089.19;;;11.11;100.00
31096;BME280;17749;51.962;8.560;2023-09-30T06:15:26;101085.50;;;11.15;100.00
31096;BME280;17749;51.962;8.560;2023-09-30T06:17:55;101081.78;;;11.21;100.00
31096;BME280;17749;51.962;8.560;2023-09-30T06:20:22;101097.75;;;11.22;100.00
31096;BME280;17749;51.962;8.560;2023-09-30T06:22:54;101099.47;;;11.25;100.00
31096;BME280;17749;51.962;8.560;2023-09-30T06:25:22;101098.47;;;11.29;100.00
31096;BME280;17749;51.962;8.560;2023-09-30T06:27:51;101081.50;;;11.31;100.00
31096;BME280;17749;51.962;8.560;2023-09-30T06:30:19;101086.78;;;11.34;100.00
31096;BME280;17749;51.962;8.560;2023-09-30T06:32:49;101095.50;;;11.39;100.00
31096;BME280;17749;51.962;8.560;2023-09-30T06:35:16;101092.78;;;11.41;100.00
31096;BME280;17749;51.962;8.560;2023-09-30T06:37:47;101095.34;;;11.46;100.00
31096;BME280;17749;51.962;8.560;2023-09-30T06:40:14;101092.56;;;11.50;100.00
31096;BME280;17749;51.962;8.560;2023-09-30T06:42:41;101093.25;;;11.57;100.00
31096;BME280;17749;51.962;8.560;2023-09-30T06:45:09;101097.44;;;11.66;100.00
31096;BME280;17749;51.962;8.560;2023-09-30T06:47:38;101100.06;;;11.67;100.00
31096;BME280;17749;51.962;8.560;2023-09-30T06:50:11;101102.38;;;11.79;100.00
31096;BME280;17749;51.962;8.560;2023-09-30T06:52:41;101106.63;;;11.87;100.00
31096;BME280;17749;51.962;8.560;2023-09-30T06:55:09;101113.53;;;11.94;100.00
31096;BME280;17749;51.962;8.560;2023-09-30T06:57:37;101115.13;;;12.01;100.00
31096;BME280;17749;51.962;8.560;2023-09-30T07:00:08;101105.81;;;12.14;100.00
31096;BME280;17749;51.962;8.560;2023-09-30T07:02:36;101108.25;;;12.22;100.00
31096;BME280;17749;51.962;8.560;2023-09-30T07:05:11;101103.69;;;12.25;100.00
31096;BME280;17749;51.962;8.560;2023-09-30T07:07:39;101102.81;;;12.25;100.00
31096;BME280;17749;51.962;8.560;2023-09-30T07:10:06;101105.44;;;12.26;100.00
31096;BME280;17749;51.962;8.560;2023-09-30T07:12:34;101113.38;;;12.30;100.00
31096;BME280;17749;51.962;8.560;2023-09-30T07:15:04;101114.00;;;12.38;100.00
31096;BME280;17749;51.962;8.560;2023-09-30T07:17:34;101122.44;;;12.52;100.00
31096;BME280;17749;51.962;8.560;2023-09-30T07:20:06;101119.47;;;12.61;100.00
31096;BME280;17749;51.962;8.560;2023-09-30T07:22:34;101119.25;;;12.67;100.00
31096;BME280;17749;51.962;8.560;2023-09-30T07:25:18;101130.69;;;12.72;100.00
31096;BME280;17749;51.962;8.560;2023-09-30T07:27:46;101132.25;;;12.80;100.00
31096;BME280;17749;51.962;8.560;2023-09-30T07:30:13;101139.75;;;12.95;100.00
31096;BME280;17749;51.962;8.560;2023-09-30T07:32:42;101138.41;;;13.08;100.00
31096;BME280;17749;51.962;8.560;2023-09-30T07:35:11;101140.94;;;13.13;100.00
31096;BME280;17749;51.962;8.560;2023-09-30T07:37:39;101129.16;;;13.19;100.00
31096;BME280;17749;51.962;8.560;2023-09-30T07:40:06;101136.34;;;13.16;100.00
31096;BME280;17749;51.962;8.560;2023-09-30T07:42:33;101136.22;;;13.20;100.00
31096;BME280;17749;51.962;8.560;2023-09-30T07:45:02;101142.38;;;13.23;100.00
31096;BME280;17749;51.962;8.560;2023-09-30T07:47:30;101131.50;;;13.28;100.00
31096;BME280;17749;51.962;8.560;2023-09-30T07:50:02;101139.34;;;13.34;100.00
31096;BME280;17749;51.962;8.560;2023-09-30T07:52:33;101144.25;;;13.46;100.00
31096;BME280;17749;51.962;8.560;2023-09-30T07:55:00;101144.06;;;13.52;100.00
31096;BME280;17749;51.962;8.560;2023-09-30T07:57:27;101152.78;;;13.57;100.00
31096;BME280;17749;51.962;8.560;2023-09-30T07:59:54;101151.84;;;13.58;100.00
31096;BME280;17749;51.962;8.560;2023-09-30T08:02:22;101151.84;;;13.58;100.00
31096;BME280;17749;51.962;8.560;2023-09-30T08:04:51;101147.91;;;13.69;100.00
31096;BME280;17749;51.962;8.560;2023-09-30T08:07:18;101153.25;;;13.69;100.00
31096;BME280;17749;51.962;8.560;2023-09-30T08:09:47;101138.78;;;13.74;100.00
31096;BME280;17749;51.962;8.560;2023-09-30T08:12:14;101150.16;;;13.81;100.00
31096;BME280;17749;51.962;8.560;2023-09-30T08:14:41;101151.66;;;13.88;100.00
31096;BME280;17749;51.962;8.560;2023-09-30T08:17:11;101148.50;;;14.00;100.00
31096;BME280;17749;51.962;8.560;2023-09-30T08:19:38;101154.44;;;14.09;100.00
31096;BME280;17749;51.962;8.560;2023-09-30T08:22:06;101156.22;;;14.10;100.00
31096;BME280;17749;51.962;8.560;2023-09-30T08:24:33;101158.19;;;14.05;100.00
31096;BME280;17749;51.962;8.560;2023-09-30T08:27:01;101157.00;;;14.12;100.00
31096;BME280;17749;51.962;8.560;2023-09-30T08:29:28;101154.88;;;14.21;100.00
31096;BME280;17749;51.962;8.560;2023-09-30T08:31:55;101159.88;;;14.31;100.00
31096;BME280;17749;51.962;8.560;2023-09-30T08:34:22;101165.94;;;14.36;100.00
31096;BME280;17749;51.962;8.560;2023-09-30T08:36:50;101163.56;;;14.50;100.00
31096;BME280;17749;51.962;8.560;2023-09-30T08:39:17;101170.31;;;14.62;100.00
31096;BME280;17749;51.962;8.560;2023-09-30T08:41:45;101166.28;;;14.72;100.00
31096;BME280;17749;51.962;8.560;2023-09-30T08:44:12;101169.78;;;14.74;100.00
31096;BME280;17749;51.962;8.560;2023-09-30T08:46:40;101173.94;;;14.83;100.00
31096;BME280;17749;51.962;8.560;2023-09-30T08:49:07;101166.53;;;14.88;100.00
31096;BME280;17749;51.962;8.560;2023-09-30T08:51:35;101171.16;;;14.84;100.00
31096;BME280;17749;51.962;8.560;2023-09-30T08:54:02;101167.44;;;14.88;100.00
31096;BME280;17749;51.962;8.560;2023-09-30T08:56:31;101165.53;;;14.90;100.00
31096;BME280;17749;51.962;8.560;2023-09-30T08:59:02;101180.75;;;14.90;100.00
31096;BME280;17749;51.962;8.560;2023-09-30T09:01:31;101172.72;;;14.90;100.00
31096;BME280;17749;51.962;8.560;2023-09-30T09:03:58;101177.63;;;15.01;100.00
31096;BME280;17749;51.962;8.560;2023-09-30T09:06:26;101176.63;;;15.03;100.00
31096;BME280;17749;51.962;8.560;2023-09-30T09:08:53;101172.03;;;15.07;100.00
31096;BME280;17749;51.962;8.560;2023-09-30T09:11:20;101182.44;;;15.15;100.00
31096;BME280;17749;51.962;8.560;2023-09-30T09:13:53;101172.13;;;15.26;100.00
31096;BME280;17749;51.962;8.560;2023-09-30T09:16:24;101176.06;;;15.38;100.00
31096;BME280;17749;51.962;8.560;2023-09-30T09:18:51;101167.63;;;15.47;100.00
31096;BME280;17749;51.962;8.560;2023-09-30T09:21:21;101161.19;;;15.51;100.00
31096;BME280;17749;51.962;8.560;2023-09-30T09:23:51;101161.41;;;15.67;100.00
31096;BME280;17749;51.962;8.560;2023-09-30T09:26:30;101158.53;;;15.71;100.00
31096;BME280;17749;51.962;8.560;2023-09-30T09:29:00;101163.28;;;15.85;100.00
31096;BME280;17749;51.962;8.560;2023-09-30T09:31:36;101164.38;;;16.00;100.00
31096;BME280;17749;51.962;8.560;2023-09-30T09:34:13;101161.69;;;16.00;100.00
31096;BME280;17749;51.962;8.560;2023-09-30T09:36:44;101164.53;;;15.97;100.00
31096;BME280;17749;51.962;8.560;2023-09-30T09:39:12;101155.66;;;15.95;100.00
31096;BME280;17749;51.962;8.560;2023-09-30T09:41:53;101161.09;;;16.14;100.00
31096;BME280;17749;51.962;8.560;2023-09-30T09:44:22;101162.91;;;16.32;100.00
31096;BME280;17749;51.962;8.560;2023-09-30T09:46:50;101162.09;;;16.49;100.00
31096;BME280;17749;51.962;8.560;2023-09-30T09:49:18;101157.44;;;16.72;100.00
31096;BME280;17749;51.962;8.560;2023-09-30T09:51:47;101157.31;;;16.92;100.00
31096;BME280;17749;51.962;8.560;2023-09-30T09:54:15;101153.31;;;17.01;100.00
31096;BME280;17749;51.962;8.560;2023-09-30T09:56:44;101154.44;;;17.14;100.00
31096;BME280;17749;51.962;8.560;2023-09-30T09:59:12;101143.44;;;17.01;100.00
31096;BME280;17749;51.962;8.560;2023-09-30T10:01:41;101149.28;;;16.73;100.00
31096;BME280;17749;51.962;8.560;2023-09-30T10:04:12;101147.75;;;16.68;100.00
31096;BME280;17749;51.962;8.560;2023-09-30T10:06:44;101141.28;;;16.91;100.00
31096;BME280;17749;51.962;8.560;2023-09-30T10:09:16;101139.47;;;17.08;100.00
31096;BME280;17749;51.962;8.560;2023-09-30T10:11:45;101137.09;;;17.20;100.00
31096;BME280;17749;51.962;8.560;2023-09-30T10:14:31;101133.44;;;17.21;100.00
31096;BME280;17749;51.962;8.560;2023-09-30T10:17:02;101142.63;;;17.34;100.00
31096;BME280;17749;51.962;8.560;2023-09-30T10:19:30;101141.66;;;17.52;100.00
31096;BME280;17749;51.962;8.560;2023-09-30T10:24:52;101142.94;;;17.80;100.00
31096;BME280;17749;51.962;8.560;2023-09-30T10:40:49;101154.81;;;17.93;100.00
31096;BME280;17749;51.962;8.560;2023-09-30T10:43:37;101137.59;;;17.96;100.00
31096;BME280;17749;51.962;8.560;2023-09-30T10:48:53;101139.34;;;18.13;100.00
31096;BME280;17749;51.962;8.560;2023-09-30T10:51:21;101147.97;;;18.04;100.00
31096;BME280;17749;51.962;8.560;2023-09-30T10:53:53;101142.78;;;17.66;100.00
31096;BME280;17749;51.962;8.560;2023-09-30T10:56:23;101137.47;;;17.64;100.00
31096;BME280;17749;51.962;8.560;2023-09-30T10:58:52;101130.44;;;17.79;100.00
31096;BME280;17749;51.962;8.560;2023-09-30T11:01:21;101136.72;;;17.95;100.00
31096;BME280;17749;51.962;8.560;2023-09-30T11:03:53;101130.06;;;18.03;100.00
31096;BME280;17749;51.962;8.560;2023-09-30T11:06:25;101140.16;;;18.15;100.00
31096;BME280;17749;51.962;8.560;2023-09-30T11:08:55;101143.13;;;18.26;100.00
31096;BME280;17749;51.962;8.560;2023-09-30T11:11:42;101149.41;;;18.43;100.00
31096;BME280;17749;51.962;8.560;2023-09-30T11:14:21;101148.78;;;18.37;100.00
31096;BME280;17749;51.962;8.560;2023-09-30T11:16:50;101146.59;;;18.28;100.00
31096;BME280;17749;51.962;8.560;2023-09-30T11:19:18;101146.31;;;18.17;100.00
31096;BME280;17749;51.962;8.560;2023-09-30T11:21:50;101158.81;;;18.02;100.00
31096;BME280;17749;51.962;8.560;2023-09-30T11:24:17;101149.38;;;18.11;100.00
31096;BME280;17749;51.962;8.560;2023-09-30T11:26:45;101151.22;;;18.26;100.00
31096;BME280;17749;51.962;8.560;2023-09-30T11:29:15;101151.38;;;18.23;100.00
31096;BME280;17749;51.962;8.560;2023-09-30T11:31:43;101156.41;;;18.13;100.00
31096;BME280;17749;51.962;8.560;2023-09-30T11:34:11;101152.50;;;18.03;100.00
31096;BME280;17749;51.962;8.560;2023-09-30T11:36:41;101151.69;;;18.01;100.00
31096;BME280;17749;51.962;8.560;2023-09-30T11:39:09;101154.97;;;17.90;100.00
31096;BME280;17749;51.962;8.560;2023-09-30T11:41:38;101148.16;;;17.83;100.00
31096;BME280;17749;51.962;8.560;2023-09-30T11:44:10;101145.59;;;17.98;100.00
31096;BME280;17749;51.962;8.560;2023-09-30T11:49:35;101144.22;;;18.06;100.00
31096;BME280;17749;51.962;8.560;2023-09-30T11:52:04;101133.50;;;18.05;100.00
31096;BME280;17749;51.962;8.560;2023-09-30T11:54:33;101121.59;;;17.93;100.00
31096;BME280;17749;51.962;8.560;2023-09-30T11:57:01;101121.59;;;17.93;100.00
31096;BME280;17749;51.962;8.560;2023-09-30T11:59:29;101116.88;;;17.81;100.00
31096;BME280;17749;51.962;8.560;2023-09-30T12:01:57;101119.31;;;17.85;100.00
31096;BME280;17749;51.962;8.560;2023-09-30T12:04:45;101120.38;;;17.99;100.00
31096;BME280;17749;51.962;8.560;2023-09-30T12:07:12;101125.00;;;18.12;100.00
31096;BME280;17749;51.962;8.560;2023-09-30T12:09:40;101119.19;;;18.20;100.00
31096;BME280;17749;51.962;8.560;2023-09-30T12:12:08;101114.16;;;18.14;100.00
31096;BME280;17749;51.962;8.560;2023-09-30T12:14:41;101106.31;;;18.25;100.00
31096;BME280;17749;51.962;8.560;2023-09-30T12:17:08;101107.56;;;18.35;100.00
31096;BME280;17749;51.962;8.560;2023-09-30T12:19:41;101099.38;;;18.37;100.00
31096;BME280;17749;51.962;8.560;2023-09-30T12:22:10;101105.88;;;18.49;100.00
31096;BME280;17749;51.962;8.560;2023-09-30T12:24:37;101108.25;;;18.55;100.00
31096;BME280;17749;51.962;8.560;2023-09-30T12:27:06;101097.28;;;18.58;100.00
31096;BME280;17749;51.962;8.560;2023-09-30T12:29:33;101094.16;;;18.50;100.00
31096;BME280;17749;51.962;8.560;2023-09-30T12:32:00;101091.72;;;18.45;100.00
31096;BME280;17749;51.962;8.560;2023-09-30T12:34:28;101083.88;;;18.40;100.00
31096;BME280;17749;51.962;8.560;2023-09-30T12:36:55;101089.97;;;18.44;100.00
31096;BME280;17749;51.962;8.560;2023-09-30T12:39:24;101092.22;;;18.52;100.00
31096;BME280;17749;51.962;8.560;2023-09-30T12:41:53;101083.50;;;18.62;100.00
31096;BME280;17749;51.962;8.560;2023-09-30T12:44:20;101086.81;;;18.68;100.00
31096;BME280;17749;51.962;8.560;2023-09-30T12:46:50;101084.03;;;18.69;100.00
31096;BME280;17749;51.962;8.560;2023-09-30T12:49:17;101087.31;;;18.74;100.00
31096;BME280;17749;51.962;8.560;2023-09-30T12:51:45;101087.19;;;18.77;100.00
31096;BME280;17749;51.962;8.560;2023-09-30T12:54:13;101087.31;;;18.74;100.00
31096;BME280;17749;51.962;8.560;2023-09-30T12:56:41;101090.22;;;18.71;100.00
31096;BME280;17749;51.962;8.560;2023-09-30T12:59:08;101074.88;;;18.72;100.00
31096;BME280;17749;51.962;8.560;2023-09-30T13:01:35;101068.81;;;18.68;100.00
31096;BME280;17749;51.962;8.560;2023-09-30T13:04:03;101072.22;;;18.56;100.00
31096;BME280;17749;51.962;8.560;2023-09-30T13:06:33;101074.50;;;18.48;100.00
31096;BME280;17749;51.962;8.560;2023-09-30T13:09:02;101070.41;;;18.40;100.00
31096;BME280;17749;51.962;8.560;2023-09-30T13:11:31;101066.47;;;18.46;100.00
31096;BME280;17749;51.962;8.560;2023-09-30T13:14:01;101068.47;;;18.58;100.00
31096;BME280;17749;51.962;8.560;2023-09-30T13:16:29;101063.34;;;18.54;100.00
31096;BME280;17749;51.962;8.560;2023-09-30T13:18:56;101064.38;;;18.51;100.00
31096;BME280;17749;51.962;8.560;2023-09-30T13:21:24;101061.94;;;18.47;100.00
31096;BME280;17749;51.962;8.560;2023-09-30T13:23:51;101063.91;;;18.29;100.00
31096;BME280;17749;51.962;8.560;2023-09-30T13:26:19;101069.72;;;18.21;100.00
31096;BME280;17749;51.962;8.560;2023-09-30T13:28:46;101064.94;;;18.10;100.00
31096;BME280;17749;51.962;8.560;2023-09-30T13:31:13;101059.38;;;18.13;100.00
31096;BME280;17749;51.962;8.560;2023-09-30T13:33:40;101058.34;;;18.16;100.00
31096;BME280;17749;51.962;8.560;2023-09-30T13:36:07;101062.41;;;18.23;100.00
31096;BME280;17749;51.962;8.560;2023-09-30T13:38:34;101060.22;;;18.30;100.00
31096;BME280;17749;51.962;8.560;2023-09-30T13:41:01;101050.13;;;18.33;100.00
31096;BME280;17749;51.962;8.560;2023-09-30T13:43:28;101055.94;;;18.42;100.00
31096;BME280;17749;51.962;8.560;2023-09-30T13:45:55;101050.03;;;18.51;100.00
31096;BME280;17749;51.962;8.560;2023-09-30T13:48:23;101054.63;;;18.49;100.00
31096;BME280;17749;51.962;8.560;2023-09-30T13:50:50;101052.22;;;18.28;100.00
31096;BME280;17749;51.962;8.560;2023-09-30T13:53:17;101053.00;;;18.14;100.00
31096;BME280;17749;51.962;8.560;2023-09-30T13:55:44;101050.50;;;18.11;100.00
31096;BME280;17749;51.962;8.560;2023-09-30T13:58:12;101049.97;;;18.05;100.00
31096;BME280;17749;51.962;8.560;2023-09-30T14:00:39;101054.84;;;17.98;100.00
31096;BME280;17749;51.962;8.560;2023-09-30T14:03:06;101046.03;;;17.94;100.00
31096;BME280;17749;51.962;8.560;2023-09-30T14:05:34;101045.09;;;17.95;100.00
31096;BME280;17749;51.962;8.560;2023-09-30T14:08:01;101053.63;;;18.04;100.00
31096;BME280;17749;51.962;8.560;2023-09-30T14:10:28;101040.56;;;18.12;100.00
31096;BME280;17749;51.962;8.560;2023-09-30T14:12:56;101031.00;;;18.22;100.00
31096;BME280;17749;51.962;8.560;2023-09-30T14:15:24;101030.66;;;18.28;100.00
31096;BME280;17749;51.962;8.560;2023-09-30T14:17:55;101028.06;;;18.27;100.00
31096;BME280;17749;51.962;8.560;2023-09-30T14:20:22;101020.91;;;18.26;100.00
31096;BME280;17749;51.962;8.560;2023-09-30T14:22:50;101021.88;;;18.25;100.00
31096;BME280;17749;51.962;8.560;2023-09-30T14:25:18;101016.22;;;18.29;100.00
31096;BME280;17749;51.962;8.560;2023-09-30T14:27:45;101020.03;;;18.25;100.00
31096;BME280;17749;51.962;8.560;2023-09-30T14:30:12;101015.03;;;18.19;100.00
31096;BME280;17749;51.962;8.560;2023-09-30T14:32:40;101008.41;;;18.09;100.00
31096;BME280;17749;51.962;8.560;2023-09-30T14:35:08;101008.31;;;17.94;100.00
31096;BME280;17749;51.962;8.560;2023-09-30T14:37:36;100995.19;;;17.88;100.00
31096;BME280;17749;51.962;8.560;2023-09-30T14:40:03;100984.25;;;17.91;100.00
31096;BME280;17749;51.962;8.560;2023-09-30T14:42:37;100981.81;;;17.87;100.00
31096;BME280;17749;51.962;8.560;2023-09-30T14:45:05;100989.00;;;17.86;100.00
31096;BME280;17749;51.962;8.560;2023-09-30T14:47:32;100991.56;;;17.89;100.00
31096;BME280;17749;51.962;8.560;2023-09-30T14:50:00;100983.63;;;17.86;100.00
31096;BME280;17749;51.962;8.560;2023-09-30T14:52:28;100982.34;;;17.93;100.00
31096;BME280;17749;51.962;8.560;2023-09-30T14:54:55;100980.25;;;17.99;100.00
31096;BME280;17749;51.962;8.560;2023-09-30T14:57:23;100977.47;;;18.00;100.00
31096;BME280;17749;51.962;8.560;2023-09-30T14:59:51;100967.56;;;18.01;100.00
31096;BME280;17749;51.962;8.560;2023-09-30T15:02:18;100975.53;;;18.02;100.00
31096;BME280;17749;51.962;8.560;2023-09-30T15:04:45;100975.81;;;17.98;100.00
31096;BME280;17749;51.962;8.560;2023-09-30T15:07:12;100975.03;;;17.95;100.00
31096;BME280;17749;51.962;8.560;2023-09-30T15:09:39;100979.72;;;17.92;100.00
31096;BME280;17749;51.962;8.560;2023-09-30T15:12:09;100988.09;;;17.87;100.00
31096;BME280;17749;51.962;8.560;2023-09-30T15:14:36;100991.72;;;17.86;100.00
31096;BME280;17749;51.962;8.560;2023-09-30T15:17:03;100986.50;;;17.83;100.00
31096;BME280;17749;51.962;8.560;2023-09-30T15:19:30;100991.03;;;17.83;100.00
31096;BME280;17749;51.962;8.560;2023-09-30T15:21:57;100982.47;;;17.74;100.00
31096;BME280;17749;51.962;8.560;2023-09-30T15:24:25;100977.34;;;17.70;100.00
31096;BME280;17749;51.962;8.560;2023-09-30T15:26:52;100970.56;;;17.63;100.00
31096;BME280;17749;51.962;8.560;2023-09-30T15:29:19;100988.63;;;17.61;100.00
31096;BME280;17749;51.962;8.560;2023-09-30T15:31:46;100993.56;;;17.52;100.00
31096;BME280;17749;51.962;8.560;2023-09-30T15:34:13;100990.84;;;17.52;100.00
31096;BME280;17749;51.962;8.560;2023-09-30T15:36:40;100998.31;;;17.47;100.00
31096;BME280;17749;51.962;8.560;2023-09-30T15:39:08;100992.50;;;17.39;100.00
31096;BME280;17749;51.962;8.560;2023-09-30T15:41:34;100996.50;;;17.32;100.00
31096;BME280;17749;51.962;8.560;2023-09-30T15:44:02;100999.31;;;17.29;100.00
31096;BME280;17749;51.962;8.560;2023-09-30T15:46:29;100988.09;;;17.21;100.00
31096;BME280;17749;51.962;8.560;2023-09-30T15:48:57;100986.78;;;17.12;100.00
31096;BME280;17749;51.962;8.560;2023-09-30T15:51:24;100985.13;;;17.09;100.00
31096;BME280;17749;51.962;8.560;2023-09-30T15:53:52;100969.16;;;17.06;100.00
31096;BME280;17749;51.962;8.560;2023-09-30T15:56:19;100978.31;;;17.02;100.00
31096;BME280;17749;51.962;8.560;2023-09-30T15:58:46;100984.84;;;16.98;100.00
31096;BME280;17749;51.962;8.560;2023-09-30T16:01:13;100983.34;;;16.93;100.00
31096;BME280;17749;51.962;8.560;2023-09-30T16:03:40;100972.88;;;16.86;100.00
31096;BME280;17749;51.962;8.560;2023-09-30T16:06:09;100966.97;;;16.80;100.00
31096;BME280;17749;51.962;8.560;2023-09-30T16:08:36;100983.19;;;16.78;100.00
31096;BME280;17749;51.962;8.560;2023-09-30T16:11:03;100986.22;;;16.71;100.00
31096;BME280;17749;51.962;8.560;2023-09-30T16:13:30;100978.50;;;16.64;100.00
31096;BME280;17749;51.962;8.560;2023-09-30T16:15:57;100979.91;;;16.54;100.00
31096;BME280;17749;51.962;8.560;2023-09-30T16:18:24;100983.03;;;16.45;100.00
31096;BME280;17749;51.962;8.560;2023-09-30T16:20:53;100984.47;;;16.35;100.00
31096;BME280;17749;51.962;8.560;2023-09-30T16:23:20;100985.72;;;16.28;100.00
31096;BME280;17749;51.962;8.560;2023-09-30T16:25:47;100996.75;;;16.21;100.00
31096;BME280;17749;51.962;8.560;2023-09-30T16:28:15;100993.59;;;16.13;100.00
31096;BME280;17749;51.962;8.560;2023-09-30T16:30:42;100999.44;;;16.04;100.00
31096;BME280;17749;51.962;8.560;2023-09-30T16:33:10;100997.97;;;15.97;100.00
31096;BME280;17749;51.962;8.560;2023-09-30T16:35:37;100996.41;;;15.93;100.00
31096;BME280;17749;51.962;8.560;2023-09-30T16:38:04;100994.63;;;15.92;100.00
31096;BME280;17749;51.962;8.560;2023-09-30T16:40:31;100993.06;;;15.88;100.00
31096;BME280;17749;51.962;8.560;2023-09-30T16:42:59;100994.13;;;15.84;100.00
31096;BME280;17749;51.962;8.560;2023-09-30T16:45:26;100999.88;;;15.76;100.00
31096;BME280;17749;51.962;8.560;2023-09-30T16:47:53;100996.66;;;15.68;100.00
31096;BME280;17749;51.962;8.560;2023-09-30T16:50:21;100989.66;;;15.64;100.00
31096;BME280;17749;51.962;8.560;2023-09-30T16:52:49;100990.63;;;15.63;100.00
31096;BME280;17749;51.962;8.560;2023-09-30T16:55:16;100987.22;;;15.59;100.00
31096;BME280;17749;51.962;8.560;2023-09-30T16:57:43;100983.22;;;15.49;100.00
31096;BME280;17749;51.962;8.560;2023-09-30T17:00:10;100996.91;;;15.43;100.00
31096;BME280;17749;51.962;8.560;2023-09-30T17:02:38;100986.31;;;15.40;100.00
31096;BME280;17749;51.962;8.560;2023-09-30T17:05:05;100985.00;;;15.29;100.00
31096;BME280;17749;51.962;8.560;2023-09-30T17:07:33;100990.66;;;15.23;100.00
31096;BME280;17749;51.962;8.560;2023-09-30T17:10:01;100995.41;;;15.17;100.00
31096;BME280;17749;51.962;8.560;2023-09-30T17:12:28;100995.75;;;15.09;100.00
31096;BME280;17749;51.962;8.560;2023-09-30T17:14:55;100997.38;;;14.93;100.00
31096;BME280;17749;51.962;8.560;2023-09-30T17:17:22;100993.44;;;14.81;100.00
31096;BME280;17749;51.962;8.560;2023-09-30T17:19:49;101000.31;;;14.66;100.00
31096;BME280;17749;51.962;8.560;2023-09-30T17:22:16;100999.09;;;14.53;100.00
31096;BME280;17749;51.962;8.560;2023-09-30T17:24:45;101008.06;;;14.52;100.00
31096;BME280;17749;51.962;8.560;2023-09-30T17:27:12;101008.84;;;14.55;100.00
31096;BME280;17749;51.962;8.560;2023-09-30T17:29:39;101005.97;;;14.60;100.00
31096;BME280;17749;51.962;8.560;2023-09-30T17:32:06;101005.16;;;14.58;100.00
31096;BME280;17749;51.962;8.560;2023-09-30T17:34:34;101011.66;;;14.51;100.00
31096;BME280;17749;51.962;8.560;2023-09-30T17:37:04;101019.34;;;14.38;100.00
31096;BME280;17749;51.962;8.560;2023-09-30T17:39:32;101020.34;;;14.35;100.00
31096;BME280;17749;51.962;8.560;2023-09-30T17:42:00;101023.84;;;14.37;100.00
31096;BME280;17749;51.962;8.560;2023-09-30T17:44:27;101024.66;;;14.39;100.00
31096;BME280;17749;51.962;8.560;2023-09-30T17:46:54;101025.50;;;14.40;100.00
31096;BME280;17749;51.962;8.560;2023-09-30T17:49:21;101023.91;;;14.36;100.00
31096;BME280;17749;51.962;8.560;2023-09-30T17:51:48;101020.41;;;14.34;100.00
31096;BME280;17749;51.962;8.560;2023-09-30T17:54:16;101017.88;;;14.31;100.00
31096;BME280;17749;51.962;8.560;2023-09-30T17:56:43;101021.34;;;14.33;100.00
31096;BME280;17749;51.962;8.560;2023-09-30T17:59:11;101021.53;;;14.28;100.00
31096;BME280;17749;51.962;8.560;2023-09-30T18:01:59;101019.91;;;14.24;100.00
31096;BME280;17749;51.962;8.560;2023-09-30T18:04:26;101020.66;;;14.28;100.00
31096;BME280;17749;51.962;8.560;2023-09-30T18:06:53;101028.75;;;14.26;100.00
31096;BME280;17749;51.962;8.560;2023-09-30T18:09:20;101031.75;;;14.18;100.00